メインページ
METAR-TAF:

METAR-TAF

空港 :

イスタンブル-アタテュルク, トルコ

アタテュルク国際空港

緯度: 40-58N, 経度: 028-49E, 海抜: 48m

現時点の気象観測

当レポートは27分前の09:20(UTC)に作成
南/南西の風 5kt、南/南東から西/南西の間で変化する
気温 9°C
湿度 81%
気圧 1021 hPa
視程: 2600m
高度100ftの雲はほとんどない

METAR: LTBA 250920Z 21005KT 160V240 6000 2600S BR FEW001 09/06 Q1021 NOSIG

時間: 12:47 (09:47 UTC)

予報

当レポートは5時間7分前の04:40(UTC)に作成
予報は25日の 06時(UTC)から 26日の 12時(UTC)まで有効
変向風 2kt
視程10km以上
1,500メートル以下は雲なし、積乱雲なし
25日の 09時(UTC)から 25日の 12時(UTC)まで徐々に
の風 12kt
25日の 18時(UTC)から 25日の 21時(UTC)まで徐々に
変向風 2kt
視程: 3500m
高度1000ftの千切れ雲あり
確率 40%
25日の 22時(UTC)から 26日の 01時(UTC)まで
視程: 1200m
高度800ftの千切れ雲あり
散在霧

TAF: LTBA 250440Z 2506/2612 VRB02KT CAVOK BECMG 2509/2512 01012KT BECMG 2518/2521 VRB02KT 3500 BR BKN010 PROB40 2522/2601 1200 BCFG BKN008

4,000以上の空港の気象観測と天気予報(METAR報とTAF報)

利用可能な観測所は地図上に黄色い丸と赤い丸で示す。

丸の上にカーソルを重ねると観測所名を参照できる。

次にクリックすると気象観測と天気予報を参照できる。

マップの切り替え:黒色「×」印の緑ボタンをクリックして拡大、「-」印の緑ボタンをクリックして縮小、緑色の三角印をクリックして隣りの地図に切り替え


METAR-TAF: